VVCR

Cam Ranh Airport

Nha Trang, Vietnam
TAF VVCR 212300Z 2200/2224 05016KT 9999 SCT013 BKN040 TEMPO 2200/2205 4000 RA
Issued Valid From Valid To
Jan-21 @ 23:00 UTC
(an hour ago)
Jan-22 @ 00:00 UTC
(8 minutes ago)
Jan-23 @ 00:00 UTC
(in 24 hours)
Jan-22 @ 00:00 to Jan-23 @ 00:00
TAF VVCR 212300Z 2200/2224 05016KT 9999 SCT013 BKN040
Wind Visibility Clouds
50° at 16 knots 10,000+ meters
  • Scattered at 1,300' AGL
  • Broken at 4,000' AGL
Temporary Jan-22 @ 00:00 to Jan-22 @ 05:00
TEMPO 2200/2205 4000 RA
Visibility Conditions
4,007 meters
  • Rain
TAF VVCR 212300Z 2200/2224 05016KT 9999 SCT013 BKN040 TEMPO 2200/2205 4000 RA
Issued Jan-21 @ 23:00 UTC
(an hour ago)
Valid From Jan-22 @ 00:00 UTC
(8 minutes ago)
Valid To Jan-23 @ 00:00 UTC
(in 24 hours)
Jan-22 @ 00:00 - Jan-23 @ 00:00
Wind Visibility
50° at 16 knots 10,000+ meters
Clouds
  • Scattered at 1,300' AGL
  • Broken at 4,000' AGL
Temporary Jan-22 @ 00:00 - Jan-22 @ 05:00
Conditions
  • Rain